logo
Search for airport 
image banner adimage banner adimage banner ad
image banner ad

DNFB - Bonny/Finima Airstrip

Located in Bonny, Nigeria

ICAO - , IATA -

Data provided by Airmate  

General information

Coordinates: N4°24'18" E7°10'52"
Elevation is 15 feet MSL.
 
View others Airports in Rivers

Operational data

Special qualification required
Current time UTC:
Current local time:
Weather at : DNPO - Port Harcourt ( 73 km )
METAR: DNPO 170700Z 00000KT 7000 SCT008 FEW019CB 26/25 Q1010 NOSIG
View NOTAMs / SUP AIP / TFR affecting this airport [VIEW]
Communications frequencies: [VIEW]

Runways:

RWY identifierQFULength (ft)Width (ft)SurfaceLDA (ft)
0443°557798UNK
22223°557798UNK

Airport contact information

Address: Bonny Nigeria

Satellite view of DNFB